Time;durP1;ratioP1;P1;durP2;ratioP2;P2;SDS_P1;SDS_P2;PMS_P1;PMS_P2;Temp;Humidity;BMP_temperature;BMP_pressure;BME280_temperature;BME280_humidity;BME280_pressure;Samples;Min_cycle;Max_cycle;Signal;HPM_P1;HPM_P2
2023/05/16 00:00:37;;;;;;;24.65;4.07;;;;;;;;;;5078503;28;20054;-79
2023/05/16 00:03:07;;;;;;;24.90;4.15;;;;;;;;;;5083096;28;20058;-78
2023/05/16 00:05:33;;;;;;;19.30;3.80;;;;;;;;;;5063062;28;20702;-79
2023/05/16 00:07:59;;;;;;;26.55;3.50;;;;;;;;;;5073278;28;20036;-78
2023/05/16 00:10:25;;;;;;;25.00;3.92;;;;;;;;;;5116286;27;20032;-78
2023/05/16 00:12:51;;;;;;;22.08;3.67;;;;;;;;;;5087510;28;20043;-78
2023/05/16 00:15:19;;;;;;;25.92;3.55;;;;;;;;;;5085891;28;20113;-77
2023/05/16 00:17:46;;;;;;;22.83;4.13;;;;;;;;;;5069681;28;20056;-77
2023/05/16 00:20:13;;;;;;;22.85;3.70;;;;;;;;;;5079319;28;20315;-77
2023/05/16 00:22:39;;;;;;;18.33;3.63;;;;;;;;;;5091967;28;20179;-77
2023/05/16 00:25:05;;;;;;;22.95;3.42;;;;;;;;;;5067216;28;20082;-77
2023/05/16 00:27:33;;;;;;;20.30;4.07;;;;;;;;;;5083446;28;20108;-78
2023/05/16 00:30:00;;;;;;;21.38;3.58;;;;;;;;;;5063400;28;20123;-77
2023/05/16 00:32:26;;;;;;;17.85;3.30;;;;;;;;;;5075966;28;20047;-78
2023/05/16 00:34:52;;;;;;;19.02;3.22;;;;;;;;;;5083743;28;20171;-78
2023/05/16 00:37:18;;;;;;;16.23;3.47;;;;;;;;;;5077250;28;20054;-78
2023/05/16 00:39:44;;;;;;;18.83;3.10;;;;;;;;;;5080819;28;20056;-78
2023/05/16 00:42:10;;;;;;;17.80;3.10;;;;;;;;;;5058453;28;20040;-79
2023/05/16 00:44:36;;;;;;;20.42;3.80;;;;;;;;;;5072976;28;20513;-78
2023/05/16 00:47:03;;;;;;;19.30;3.13;;;;;;;;;;5070904;28;20044;-78
2023/05/16 00:49:29;;;;;;;25.08;3.80;;;;;;;;;;5074153;28;20044;-79
2023/05/16 00:51:55;;;;;;;21.30;3.17;;;;;;;;;;5080556;28;20056;-78
2023/05/16 00:54:24;;;;;;;18.92;3.22;;;;;;;;;;5092570;27;20031;-77
2023/05/16 00:56:51;;;;;;;19.05;3.53;;;;;;;;;;5081397;28;20809;-78
2023/05/16 00:59:18;;;;;;;17.13;3.08;;;;;;;;;;5060513;28;20066;-79
2023/05/16 01:01:46;;;;;;;20.83;3.08;;;;;;;;;;5080310;28;20048;-78
2023/05/16 01:04:13;;;;;;;13.55;2.92;;;;;;;;;;5078289;28;20052;-79
2023/05/16 01:06:39;;;;;;;15.68;3.15;;;;;;;;;;5065472;28;20123;-78
2023/05/16 01:09:06;;;;;;;16.17;3.25;;;;;;;;;;5061271;28;20044;-78
2023/05/16 01:11:46;;;;;;;17.52;2.70;;;;;;;;;;5066664;28;20052;-79
2023/05/16 01:14:12;;;;;;;20.05;4.00;;;;;;;;;;5090469;28;20050;-78
2023/05/16 01:16:44;;;;;;;19.15;3.20;;;;;;;;;;5085248;28;20077;-77
2023/05/16 01:19:17;;;;;;;20.42;3.00;;;;;;;;;;5068036;28;20039;-77
2023/05/16 01:22:01;;;;;;;15.27;2.95;;;;;;;;;;5080615;28;20099;-78
2023/05/16 01:24:33;;;;;;;16.65;3.75;;;;;;;;;;5081501;28;20235;-78
2023/05/16 01:26:59;;;;;;;18.35;3.22;;;;;;;;;;5066784;28;20052;-77
2023/05/16 01:29:25;;;;;;;19.88;2.97;;;;;;;;;;5064855;28;20048;-77
2023/05/16 01:31:51;;;;;;;20.60;2.88;;;;;;;;;;5083293;28;20407;-78
2023/05/16 01:34:17;;;;;;;21.08;3.28;;;;;;;;;;5084504;28;20047;-78
2023/05/16 01:36:53;;;;;;;15.48;3.30;;;;;;;;;;5062836;28;20075;-77
2023/05/16 01:39:42;;;;;;;16.30;2.60;;;;;;;;;;5082655;28;20043;-78
2023/05/16 01:42:10;;;;;;;22.52;3.17;;;;;;;;;;5064985;28;20043;-78
2023/05/16 01:44:40;;;;;;;15.00;2.90;;;;;;;;;;5064318;28;20039;-78
2023/05/16 01:47:09;;;;;;;17.30;3.28;;;;;;;;;;5060762;28;20040;-78
2023/05/16 01:49:35;;;;;;;;;;;;;;;;;;5065047;28;20048;-78
2023/05/16 01:52:05;;;;;;;17.60;3.28;;;;;;;;;;5078789;28;20516;-77
2023/05/16 01:54:32;;;;;;;16.83;2.80;;;;;;;;;;5079861;28;20402;-78
2023/05/16 01:56:59;;;;;;;17.48;2.80;;;;;;;;;;5086459;28;20048;-78
2023/05/16 01:59:25;;;;;;;17.23;2.60;;;;;;;;;;5081118;28;20036;-78
2023/05/16 02:01:56;;;;;;;14.45;2.85;;;;;;;;;;5074503;28;20088;-78
2023/05/16 02:04:23;;;;;;;15.23;2.60;;;;;;;;;;5074583;28;20522;-78
2023/05/16 02:06:49;;;;;;;18.55;2.97;;;;;;;;;;5065314;28;20055;-78
2023/05/16 02:09:15;;;;;;;15.90;2.63;;;;;;;;;;5071821;28;20040;-77
2023/05/16 02:11:42;;;;;;;19.00;2.97;;;;;;;;;;5078326;28;20234;-77
2023/05/16 02:14:08;;;;;;;17.52;2.90;;;;;;;;;;5073204;28;20036;-78
2023/05/16 02:16:38;;;;;;;26.80;3.00;;;;;;;;;;5085623;28;20102;-78
2023/05/16 02:19:04;;;;;;;17.80;2.53;;;;;;;;;;5060341;28;20134;-77
2023/05/16 02:21:30;;;;;;;13.43;2.72;;;;;;;;;;5063078;28;20047;-77
2023/05/16 02:23:56;;;;;;;13.85;3.20;;;;;;;;;;5065101;28;20047;-79
2023/05/16 02:26:22;;;;;;;14.75;2.80;;;;;;;;;;5058547;28;20082;-79
2023/05/16 02:28:48;;;;;;;19.58;3.55;;;;;;;;;;5072449;28;20051;-78
2023/05/16 02:31:25;;;;;;;20.20;3.20;;;;;;;;;;5074736;28;20101;-78
2023/05/16 02:33:51;;;;;;;20.35;2.95;;;;;;;;;;5077710;28;20039;-78
2023/05/16 02:36:17;;;;;;;16.52;2.83;;;;;;;;;;5059223;28;20044;-78
2023/05/16 02:38:43;;;;;;;17.65;3.30;;;;;;;;;;5070953;28;20101;-78
2023/05/16 02:41:09;;;;;;;16.92;2.92;;;;;;;;;;5083424;28;20503;-78
2023/05/16 02:43:35;;;;;;;19.42;2.90;;;;;;;;;;5076792;28;20110;-78
2023/05/16 02:46:03;;;;;;;16.60;2.65;;;;;;;;;;5080703;28;20044;-78
2023/05/16 02:48:29;;;;;;;16.98;2.80;;;;;;;;;;5075101;28;20051;-78
2023/05/16 02:50:55;;;;;;;19.75;3.33;;;;;;;;;;5056154;28;20059;-78
2023/05/16 02:53:21;;;;;;;17.92;2.90;;;;;;;;;;5057283;28;20044;-78
2023/05/16 02:55:47;;;;;;;17.85;3.03;;;;;;;;;;5080121;28;20071;-79
2023/05/16 02:58:13;;;;;;;16.75;3.10;;;;;;;;;;5075997;28;20094;-78
2023/05/16 03:00:39;;;;;;;15.23;3.15;;;;;;;;;;5068837;28;20457;-78
2023/05/16 03:03:05;;;;;;;21.17;3.33;;;;;;;;;;5075713;28;20109;-78
2023/05/16 03:05:31;;;;;;;13.82;3.03;;;;;;;;;;5075035;28;20040;-78
2023/05/16 03:07:57;;;;;;;15.77;2.55;;;;;;;;;;5074437;28;20566;-78
2023/05/16 03:10:23;;;;;;;17.17;3.13;;;;;;;;;;5073965;28;20751;-77
2023/05/16 03:12:49;;;;;;;20.60;3.35;;;;;;;;;;5075628;28;20051;-78
2023/05/16 03:15:16;;;;;;;18.25;3.63;;;;;;;;;;5077614;28;20051;-78
2023/05/16 03:17:42;;;;;;;20.88;3.45;;;;;;;;;;5066263;28;20644;-79
2023/05/16 03:20:09;;;;;;;15.60;2.80;;;;;;;;;;5057783;28;20052;-78
2023/05/16 03:22:35;;;;;;;20.50;3.60;;;;;;;;;;5073873;28;20537;-78
2023/05/16 03:25:01;;;;;;;13.60;2.97;;;;;;;;;;5074411;28;20044;-78
2023/05/16 03:27:27;;;;;;;16.55;2.90;;;;;;;;;;5073131;28;20131;-78
2023/05/16 03:29:53;;;;;;;16.35;3.22;;;;;;;;;;5071788;28;20048;-78
2023/05/16 03:32:19;;;;;;;15.07;3.17;;;;;;;;;;5101289;28;20032;-78
2023/05/16 03:34:45;;;;;;;25.30;3.38;;;;;;;;;;5056814;28;20040;-78
2023/05/16 03:37:14;;;;;;;17.67;4.28;;;;;;;;;;5061459;28;20048;-78
2023/05/16 03:39:40;;;;;;;18.83;4.25;;;;;;;;;;5075876;28;20048;-77
2023/05/16 03:42:06;;;;;;;19.75;3.20;;;;;;;;;;5108012;27;20048;-78
2023/05/16 03:44:32;;;;;;;19.88;3.40;;;;;;;;;;5062812;28;20040;-78
2023/05/16 03:46:58;;;;;;;20.40;3.42;;;;;;;;;;5078737;28;20040;-78
2023/05/16 03:49:29;;;;;;;18.75;3.65;;;;;;;;;;5054073;28;20036;-78
2023/05/16 03:51:55;;;;;;;21.42;3.25;;;;;;;;;;5067121;28;20504;-79
2023/05/16 03:54:22;;;;;;;21.73;3.50;;;;;;;;;;5079916;28;20059;-78
2023/05/16 03:56:47;;;;;;;19.48;3.60;;;;;;;;;;5082910;28;20062;-78
2023/05/16 03:59:13;;;;;;;18.38;3.92;;;;;;;;;;5065873;28;20492;-78
2023/05/16 04:01:40;;;;;;;20.58;3.50;;;;;;;;;;5064136;28;20051;-78
2023/05/16 04:04:06;;;;;;;15.77;3.65;;;;;;;;;;5081073;28;20132;-78
2023/05/16 04:06:33;;;;;;;14.38;3.28;;;;;;;;;;5073454;28;20127;-79
2023/05/16 04:08:59;;;;;;;19.90;3.63;;;;;;;;;;5059287;28;20055;-79
2023/05/16 04:11:25;;;;;;;19.00;3.30;;;;;;;;;;5060255;28;20054;-78
2023/05/16 04:13:52;;;;;;;21.33;3.70;;;;;;;;;;5060696;28;20036;-78
2023/05/16 04:16:18;;;;;;;24.10;4.65;;;;;;;;;;5079381;28;20044;-78
2023/05/16 04:18:45;;;;;;;16.73;3.58;;;;;;;;;;5075373;28;20044;-78
2023/05/16 04:21:14;;;;;;;21.23;4.18;;;;;;;;;;5080184;28;20093;-77
2023/05/16 04:23:40;;;;;;;18.35;3.17;;;;;;;;;;5079580;28;20054;-78
2023/05/16 04:26:09;;;;;;;18.45;3.08;;;;;;;;;;5080963;28;20589;-78
2023/05/16 04:28:35;;;;;;;21.27;4.03;;;;;;;;;;5080074;28;20044;-78
2023/05/16 04:31:01;;;;;;;15.18;2.92;;;;;;;;;;5079640;28;20055;-78
2023/05/16 04:33:27;;;;;;;18.98;3.58;;;;;;;;;;5075351;28;20483;-78
2023/05/16 04:35:53;;;;;;;20.23;3.45;;;;;;;;;;5098337;28;20052;-78
2023/05/16 04:38:20;;;;;;;16.00;2.92;;;;;;;;;;5072264;28;20040;-79
2023/05/16 04:40:48;;;;;;;17.20;3.33;;;;;;;;;;5081448;28;20642;-78
2023/05/16 04:43:15;;;;;;;22.05;3.72;;;;;;;;;;5083174;28;21232;-78
2023/05/16 04:45:41;;;;;;;16.50;3.65;;;;;;;;;;5078658;28;20044;-78
2023/05/16 04:48:07;;;;;;;21.92;3.25;;;;;;;;;;5063499;28;20480;-78
2023/05/16 04:50:33;;;;;;;17.30;3.33;;;;;;;;;;5063798;28;20051;-78
2023/05/16 04:53:01;;;;;;;17.70;2.70;;;;;;;;;;5072955;28;20054;-78
2023/05/16 04:55:27;;;;;;;17.40;3.75;;;;;;;;;;5098982;27;20056;-78
2023/05/16 04:57:53;;;;;;;12.05;3.05;;;;;;;;;;5055560;28;20044;-79
2023/05/16 05:00:19;;;;;;;17.55;3.40;;;;;;;;;;5077874;28;20618;-77
2023/05/16 05:02:45;;;;;;;21.08;2.88;;;;;;;;;;5065998;28;20051;-78
2023/05/16 05:05:11;;;;;;;16.75;3.30;;;;;;;;;;5069581;28;20125;-78
2023/05/16 05:07:37;;;;;;;17.88;4.18;;;;;;;;;;5057626;28;20097;-78
2023/05/16 05:10:06;;;;;;;23.38;3.53;;;;;;;;;;5059961;28;20044;-79
2023/05/16 05:12:32;;;;;;;16.55;3.03;;;;;;;;;;5091886;27;20039;-78
2023/05/16 05:14:58;;;;;;;14.52;3.22;;;;;;;;;;5063075;28;20047;-78
2023/05/16 05:17:24;;;;;;;13.05;2.97;;;;;;;;;;5068136;28;20050;-78
2023/05/16 05:19:50;;;;;;;20.27;2.78;;;;;;;;;;5078740;28;20044;-78
2023/05/16 05:22:16;;;;;;;12.98;2.72;;;;;;;;;;5096844;27;20036;-78
2023/05/16 05:24:42;;;;;;;13.70;2.88;;;;;;;;;;5062387;28;20582;-78
2023/05/16 05:27:08;;;;;;;15.93;2.78;;;;;;;;;;5063148;28;20065;-77
2023/05/16 05:29:34;;;;;;;13.40;3.20;;;;;;;;;;5078412;28;20466;-77
2023/05/16 05:32:01;;;;;;;18.17;3.22;;;;;;;;;;5061755;28;21108;-76
2023/05/16 05:34:27;;;;;;;12.32;2.60;;;;;;;;;;5092747;27;20130;-77
2023/05/16 05:36:53;;;;;;;17.67;2.92;;;;;;;;;;5078156;28;20044;-77
2023/05/16 05:39:19;;;;;;;15.27;2.67;;;;;;;;;;5086603;28;20043;-77
2023/05/16 05:41:45;;;;;;;18.13;2.65;;;;;;;;;;5074870;28;20163;-77
2023/05/16 05:44:11;;;;;;;15.73;2.92;;;;;;;;;;5083296;28;20046;-77
2023/05/16 05:46:37;;;;;;;13.52;2.63;;;;;;;;;;5078315;28;20044;-77
2023/05/16 05:49:03;;;;;;;12.18;2.60;;;;;;;;;;5079542;28;20067;-76
2023/05/16 05:51:29;;;;;;;16.60;3.42;;;;;;;;;;5080557;28;20555;-77
2023/05/16 05:53:56;;;;;;;14.32;2.75;;;;;;;;;;5075952;28;20163;-76
2023/05/16 05:56:23;;;;;;;13.52;2.72;;;;;;;;;;5083037;28;20036;-76
2023/05/16 05:58:50;;;;;;;15.18;2.58;;;;;;;;;;5079875;28;20040;-77
2023/05/16 06:01:16;;;;;;;17.17;2.97;;;;;;;;;;5076680;28;20119;-77
2023/05/16 06:03:42;;;;;;;14.95;2.38;;;;;;;;;;5078004;28;20704;-77
2023/05/16 06:06:08;;;;;;;17.23;3.13;;;;;;;;;;5080651;28;20154;-78
2023/05/16 06:08:34;;;;;;;14.35;2.40;;;;;;;;;;5056267;28;20040;-78
2023/05/16 06:11:01;;;;;;;12.32;2.88;;;;;;;;;;5104268;27;20510;-77
2023/05/16 06:13:27;;;;;;;15.48;2.95;;;;;;;;;;5076003;28;20043;-77
2023/05/16 06:15:53;;;;;;;13.05;2.58;;;;;;;;;;5075149;28;20044;-78
2023/05/16 06:18:23;;;;;;;17.42;2.42;;;;;;;;;;5074141;28;20036;-78
2023/05/16 06:20:49;;;;;;;11.20;2.38;;;;;;;;;;5058138;28;20036;-77
2023/05/16 06:23:15;;;;;;;12.65;2.50;;;;;;;;;;5076184;28;20044;-77
2023/05/16 06:25:41;;;;;;;19.02;2.42;;;;;;;;;;5101317;27;20633;-77
2023/05/16 06:28:07;;;;;;;15.95;2.80;;;;;;;;;;5081875;28;20433;-77
2023/05/16 06:30:33;;;;;;;24.15;2.90;;;;;;;;;;5106236;27;20130;-77
2023/05/16 06:32:59;;;;;;;15.23;2.45;;;;;;;;;;5109898;27;20502;-78
2023/05/16 06:35:25;;;;;;;16.65;2.30;;;;;;;;;;5073487;28;20044;-78
2023/05/16 06:37:51;;;;;;;10.63;2.13;;;;;;;;;;5072325;28;20062;-78
2023/05/16 06:40:17;;;;;;;13.45;2.30;;;;;;;;;;5078007;28;20048;-78
2023/05/16 06:42:43;;;;;;;12.38;2.10;;;;;;;;;;5078586;28;20059;-77
2023/05/16 06:45:10;;;;;;;13.80;2.42;;;;;;;;;;5063146;28;20621;-77
2023/05/16 06:47:36;;;;;;;15.18;3.13;;;;;;;;;;5058677;28;20127;-77
2023/05/16 06:50:02;;;;;;;12.80;2.05;;;;;;;;;;5070831;28;20036;-77
2023/05/16 06:52:28;;;;;;;9.23;1.98;;;;;;;;;;5107508;27;20646;-78
2023/05/16 06:54:54;;;;;;;13.05;2.28;;;;;;;;;;5073079;28;20040;-78
2023/05/16 06:57:20;;;;;;;13.40;2.22;;;;;;;;;;5101213;27;20467;-78
2023/05/16 06:59:46;;;;;;;7.45;1.90;;;;;;;;;;5062893;28;20136;-78
2023/05/16 07:02:12;;;;;;;7.50;1.48;;;;;;;;;;5078070;28;20454;-79
2023/05/16 07:04:39;;;;;;;8.73;1.63;;;;;;;;;;5069303;28;20039;-78
2023/05/16 07:07:06;;;;;;;8.43;1.63;;;;;;;;;;5073326;28;20079;-77
2023/05/16 07:09:33;;;;;;;10.15;1.55;;;;;;;;;;5075790;28;20052;-78
2023/05/16 07:11:59;;;;;;;9.60;1.77;;;;;;;;;;5071877;28;20094;-76
2023/05/16 07:14:25;;;;;;;11.80;1.50;;;;;;;;;;5067948;28;20046;-76
2023/05/16 07:16:51;;;;;;;11.60;1.85;;;;;;;;;;5102341;28;20119;-76
2023/05/16 07:19:17;;;;;;;13.35;2.50;;;;;;;;;;5077208;28;20155;-76
2023/05/16 07:21:43;;;;;;;18.73;2.15;;;;;;;;;;5078986;28;20125;-76
2023/05/16 07:24:09;;;;;;;8.75;1.90;;;;;;;;;;5074129;28;20040;-75
2023/05/16 07:26:35;;;;;;;10.02;2.20;;;;;;;;;;5079740;28;20054;-76
2023/05/16 07:29:01;;;;;;;9.88;1.80;;;;;;;;;;5077535;28;20093;-76
2023/05/16 07:31:27;;;;;;;7.90;1.58;;;;;;;;;;5076331;28;20047;-75
2023/05/16 07:33:53;;;;;;;7.72;1.83;;;;;;;;;;5110173;27;20052;-76
2023/05/16 07:36:20;;;;;;;8.35;1.70;;;;;;;;;;5080823;28;20067;-76
2023/05/16 07:38:46;;;;;;;14.02;2.10;;;;;;;;;;5064630;28;20044;-76
2023/05/16 07:41:12;;;;;;;10.38;1.80;;;;;;;;;;5066922;28;20520;-77
2023/05/16 07:43:38;;;;;;;11.65;2.35;;;;;;;;;;5063520;28;20048;-76
2023/05/16 07:46:04;;;;;;;7.50;1.35;;;;;;;;;;5066382;28;20055;-76
2023/05/16 07:48:30;;;;;;;11.57;1.90;;;;;;;;;;5075045;28;20051;-76
2023/05/16 07:50:56;;;;;;;11.23;1.90;;;;;;;;;;5081255;28;20041;-76
2023/05/16 07:53:22;;;;;;;9.52;1.70;;;;;;;;;;5077492;28;20055;-77
2023/05/16 07:55:49;;;;;;;11.55;2.15;;;;;;;;;;5082568;28;20052;-76
2023/05/16 07:58:15;;;;;;;11.38;1.98;;;;;;;;;;5103264;27;20193;-77
2023/05/16 08:00:41;;;;;;;11.65;2.15;;;;;;;;;;5079562;28;20048;-77
2023/05/16 08:03:07;;;;;;;11.85;2.15;;;;;;;;;;5072952;28;20044;-77
2023/05/16 08:05:33;;;;;;;13.98;2.30;;;;;;;;;;5064403;28;20039;-77
2023/05/16 08:07:59;;;;;;;13.77;2.45;;;;;;;;;;5106199;27;20088;-77
2023/05/16 08:10:25;;;;;;;10.43;2.05;;;;;;;;;;5084308;28;20066;-77
2023/05/16 08:12:52;;;;;;;10.02;1.83;;;;;;;;;;5083077;28;20044;-77
2023/05/16 08:15:18;;;;;;;13.65;2.03;;;;;;;;;;5078849;28;20040;-76
2023/05/16 08:17:44;;;;;;;11.10;2.17;;;;;;;;;;5078325;28;20055;-77
2023/05/16 08:20:10;;;;;;;12.18;2.17;;;;;;;;;;5107338;27;20048;-76
2023/05/16 08:22:36;;;;;;;11.57;1.98;;;;;;;;;;5082465;28;20068;-79
2023/05/16 08:25:02;;;;;;;6.93;1.83;;;;;;;;;;5083170;28;20079;-77
2023/05/16 08:27:28;;;;;;;7.25;1.45;;;;;;;;;;5073421;28;20519;-77
2023/05/16 08:29:55;;;;;;;10.75;1.65;;;;;;;;;;5099814;27;20048;-78
2023/05/16 08:32:22;;;;;;;7.13;2.08;;;;;;;;;;5077260;28;20075;-77
2023/05/16 08:34:47;;;;;;;10.50;2.05;;;;;;;;;;5083002;28;21477;-77
2023/05/16 08:37:13;;;;;;;6.03;1.45;;;;;;;;;;5076020;28;20044;-77
2023/05/16 08:39:39;;;;;;;9.00;1.50;;;;;;;;;;5079770;28;20050;-76
2023/05/16 08:42:06;;;;;;;9.38;1.92;;;;;;;;;;5080299;28;20044;-77
2023/05/16 08:44:33;;;;;;;9.20;1.85;;;;;;;;;;5063100;28;20516;-76
2023/05/16 08:47:03;;;;;;;6.72;1.40;;;;;;;;;;5075223;28;20491;-77
2023/05/16 08:49:31;;;;;;;4.05;1.10;;;;;;;;;;5093100;28;20492;-78
2023/05/16 08:51:58;;;;;;;7.50;1.25;;;;;;;;;;5073566;28;20126;-76
2023/05/16 08:54:25;;;;;;;4.95;1.13;;;;;;;;;;5076793;28;20040;-76
2023/05/16 08:56:51;;;;;;;5.05;1.33;;;;;;;;;;5077709;28;20507;-76
2023/05/16 08:59:18;;;;;;;7.60;1.48;;;;;;;;;;5078502;28;20042;-76
2023/05/16 09:01:44;;;;;;;8.73;1.92;;;;;;;;;;5071377;28;20056;-76
2023/05/16 09:04:10;;;;;;;11.57;1.67;;;;;;;;;;5075348;28;20047;-75
2023/05/16 09:06:36;;;;;;;9.73;1.80;;;;;;;;;;5080534;28;20745;-75
2023/05/16 09:09:03;;;;;;;12.27;1.92;;;;;;;;;;5080988;28;20059;-76
2023/05/16 09:11:29;;;;;;;10.60;1.65;;;;;;;;;;5078090;28;20071;-76
2023/05/16 09:13:55;;;;;;;8.55;1.90;;;;;;;;;;5076352;28;20080;-77
2023/05/16 09:16:21;;;;;;;11.05;1.90;;;;;;;;;;5076626;28;20052;-76
2023/05/16 09:19:00;;;;;;;11.50;2.10;;;;;;;;;;5071946;28;20056;-76
2023/05/16 09:21:33;;;;;;;8.05;1.80;;;;;;;;;;5073959;28;20513;-77
2023/05/16 09:24:03;;;;;;;10.40;2.10;;;;;;;;;;5081229;28;20059;-77
2023/05/16 09:26:30;;;;;;;9.98;1.80;;;;;;;;;;5073945;28;20058;-76
2023/05/16 09:28:56;;;;;;;6.75;1.38;;;;;;;;;;5068464;28;20061;-76
2023/05/16 09:31:29;;;;;;;6.35;1.60;;;;;;;;;;5076248;28;20044;-75
2023/05/16 09:33:58;;;;;;;11.50;1.70;;;;;;;;;;5087170;27;20538;-76
2023/05/16 09:36:25;;;;;;;7.55;1.40;;;;;;;;;;5073822;28;20704;-76
2023/05/16 09:38:51;;;;;;;8.52;1.83;;;;;;;;;;5063095;28;20131;-77
2023/05/16 09:41:18;;;;;;;10.65;1.42;;;;;;;;;;5058293;28;20044;-76
2023/05/16 09:43:44;;;;;;;27.10;2.33;;;;;;;;;;5104627;27;20512;-76
2023/05/16 09:46:14;;;;;;;9.90;1.90;;;;;;;;;;5078512;28;20043;-78
2023/05/16 09:48:51;;;;;;;8.13;1.50;;;;;;;;;;5074001;28;20577;-76
2023/05/16 09:51:21;;;;;;;10.88;2.13;;;;;;;;;;5094179;28;20058;-77
2023/05/16 09:53:47;;;;;;;5.78;1.52;;;;;;;;;;5081244;28;21774;-76
2023/05/16 09:56:14;;;;;;;8.30;1.80;;;;;;;;;;5071261;28;20684;-76
2023/05/16 09:58:41;;;;;;;6.32;1.38;;;;;;;;;;5107856;27;20033;-77
2023/05/16 10:01:08;;;;;;;10.75;1.55;;;;;;;;;;5078644;28;20108;-76
2023/05/16 10:03:38;;;;;;;9.43;2.10;;;;;;;;;;5078421;28;20032;-76
2023/05/16 10:06:05;;;;;;;7.82;2.20;;;;;;;;;;5084456;28;20483;-76
2023/05/16 10:08:35;;;;;;;8.23;1.88;;;;;;;;;;5074062;28;20561;-75
2023/05/16 10:11:01;;;;;;;8.13;1.70;;;;;;;;;;5076768;28;20078;-76
2023/05/16 10:13:31;;;;;;;9.13;2.00;;;;;;;;;;5082663;28;20044;-76
2023/05/16 10:15:58;;;;;;;8.75;1.83;;;;;;;;;;5079234;28;20051;-75
2023/05/16 10:18:28;;;;;;;8.80;1.92;;;;;;;;;;5076643;28;20044;-75
2023/05/16 10:20:56;;;;;;;11.90;1.95;;;;;;;;;;5074949;28;20151;-75
2023/05/16 10:23:25;;;;;;;10.05;2.15;;;;;;;;;;5100783;27;20051;-76
2023/05/16 10:25:51;;;;;;;9.95;1.60;;;;;;;;;;5077800;28;20044;-76
2023/05/16 10:28:17;;;;;;;12.73;1.73;;;;;;;;;;5073525;28;20044;-76
2023/05/16 10:30:44;;;;;;;9.43;1.40;;;;;;;;;;5094308;27;20085;-75
2023/05/16 10:33:14;;;;;;;7.40;1.40;;;;;;;;;;5092197;27;20032;-76
2023/05/16 10:35:41;;;;;;;10.85;1.75;;;;;;;;;;5075120;28;20064;-76
2023/05/16 10:38:11;;;;;;;11.20;1.60;;;;;;;;;;5061352;28;20043;-76
2023/05/16 10:40:38;;;;;;;8.38;1.85;;;;;;;;;;5075178;28;20090;-77
2023/05/16 10:43:05;;;;;;;11.27;1.90;;;;;;;;;;5076327;28;20055;-77
2023/05/16 10:45:31;;;;;;;6.90;1.58;;;;;;;;;;5097073;27;20044;-76
2023/05/16 10:47:57;;;;;;;11.35;1.77;;;;;;;;;;5091657;28;20044;-76
2023/05/16 10:50:32;;;;;;;9.20;1.67;;;;;;;;;;5075097;28;20229;-76
2023/05/16 10:53:18;;;;;;;10.30;2.17;;;;;;;;;;5078680;28;20059;-77
2023/05/16 10:56:00;;;;;;;8.77;2.00;;;;;;;;;;5095005;28;20063;-77
2023/05/16 10:58:37;;;;;;;11.25;1.90;;;;;;;;;;5073435;28;20044;-76
2023/05/16 11:01:20;;;;;;;11.75;1.60;;;;;;;;;;5078766;28;20104;-76
2023/05/16 11:04:13;;;;;;;5.55;1.45;;;;;;;;;;5057479;28;20086;-76
2023/05/16 11:06:42;;;;;;;5.90;1.40;;;;;;;;;;5070380;28;20111;-76
2023/05/16 11:09:18;;;;;;;6.45;1.25;;;;;;;;;;5078609;28;20055;-77
2023/05/16 11:11:58;;;;;;;9.93;2.05;;;;;;;;;;5076660;28;20503;-76
2023/05/16 11:14:25;;;;;;;10.25;1.30;;;;;;;;;;5069763;28;20101;-76
2023/05/16 11:16:52;;;;;;;7.33;1.43;;;;;;;;;;5071130;28;20043;-77
2023/05/16 11:19:29;;;;;;;8.10;1.75;;;;;;;;;;5074938;28;20043;-76
2023/05/16 11:22:08;;;;;;;6.55;1.23;;;;;;;;;;5055499;28;20048;-76
2023/05/16 11:24:35;;;;;;;8.10;1.25;;;;;;;;;;5087260;28;20048;-77
2023/05/16 11:27:02;;;;;;;6.45;1.40;;;;;;;;;;5065160;28;20455;-76
2023/05/16 11:29:30;;;;;;;9.65;1.60;;;;;;;;;;5100265;27;20526;-77
2023/05/16 11:31:58;;;;;;;7.95;1.30;;;;;;;;;;5074207;28;20141;-77
2023/05/16 11:34:24;;;;;;;8.23;1.60;;;;;;;;;;5083592;28;20058;-76
2023/05/16 11:36:51;;;;;;;7.13;1.35;;;;;;;;;;5072463;28;20044;-76
2023/05/16 11:39:18;;;;;;;7.53;1.63;;;;;;;;;;5079804;28;20052;-77
2023/05/16 11:41:45;;;;;;;8.10;1.60;;;;;;;;;;5074994;28;20088;-76
2023/05/16 11:44:11;;;;;;;8.32;1.95;;;;;;;;;;5058032;28;20074;-77
2023/05/16 11:46:39;;;;;;;7.10;1.98;;;;;;;;;;5068511;28;20082;-76
2023/05/16 11:49:06;;;;;;;6.80;1.50;;;;;;;;;;5081458;28;20113;-76
2023/05/16 11:51:33;;;;;;;9.18;2.08;;;;;;;;;;5081194;28;21049;-77
2023/05/16 11:54:00;;;;;;;7.75;2.08;;;;;;;;;;5076027;28;20656;-76
2023/05/16 11:56:26;;;;;;;8.60;2.03;;;;;;;;;;5076955;28;20118;-77
2023/05/16 11:58:52;;;;;;;8.05;1.98;;;;;;;;;;5075867;28;20044;-76
2023/05/16 12:01:18;;;;;;;8.38;2.20;;;;;;;;;;5081374;28;20063;-76
2023/05/16 12:03:44;;;;;;;12.60;2.55;;;;;;;;;;5077396;28;20067;-76
2023/05/16 12:06:14;;;;;;;11.80;2.33;;;;;;;;;;5069749;28;20254;-76
2023/05/16 12:08:49;;;;;;;8.43;2.80;;;;;;;;;;5101085;27;20810;-77
2023/05/16 12:11:14;;;;;;;13.15;2.90;;;;;;;;;;5076841;28;20044;-76
2023/05/16 12:13:40;;;;;;;9.98;2.58;;;;;;;;;;5088798;27;20056;-76
2023/05/16 12:16:06;;;;;;;7.75;2.38;;;;;;;;;;5072689;28;20048;-76
2023/05/16 12:18:33;;;;;;;10.70;2.88;;;;;;;;;;5078293;28;20094;-77
2023/05/16 12:20:59;;;;;;;13.70;2.50;;;;;;;;;;5080973;28;20064;-77
2023/05/16 12:23:28;;;;;;;8.60;2.72;;;;;;;;;;5087160;28;20039;-76
2023/05/16 12:25:56;;;;;;;10.57;2.75;;;;;;;;;;5088867;28;20043;-76
2023/05/16 12:28:22;;;;;;;9.10;2.97;;;;;;;;;;5083302;28;20115;-78
2023/05/16 12:30:48;;;;;;;9.50;2.92;;;;;;;;;;5076597;28;20048;-76
2023/05/16 12:33:18;;;;;;;7.57;2.80;;;;;;;;;;5084753;28;20055;-75
2023/05/16 12:35:44;;;;;;;9.25;2.70;;;;;;;;;;5076060;28;20052;-76
2023/05/16 12:38:11;;;;;;;13.32;3.03;;;;;;;;;;5062997;28;20113;-76
2023/05/16 12:40:38;;;;;;;11.50;2.50;;;;;;;;;;5088356;27;20048;-77
2023/05/16 12:43:05;;;;;;;13.07;3.47;;;;;;;;;;5089698;28;20048;-75
2023/05/16 12:45:32;;;;;;;9.35;2.60;;;;;;;;;;5119923;27;20194;-76
2023/05/16 12:48:05;;;;;;;9.57;2.78;;;;;;;;;;5067427;28;20131;-75
2023/05/16 12:50:33;;;;;;;13.18;3.30;;;;;;;;;;5102446;27;20478;-77
2023/05/16 12:53:00;;;;;;;10.45;2.90;;;;;;;;;;5073585;28;20084;-76
2023/05/16 12:55:26;;;;;;;10.65;3.13;;;;;;;;;;5104977;27;20040;-75
2023/05/16 12:57:55;;;;;;;6.72;2.50;;;;;;;;;;5090403;28;20102;-76
2023/05/16 13:00:25;;;;;;;6.70;2.20;;;;;;;;;;5070492;28;20090;-75
2023/05/16 13:02:51;;;;;;;7.20;2.42;;;;;;;;;;5102687;27;20048;-77
2023/05/16 13:05:17;;;;;;;7.47;2.47;;;;;;;;;;5074690;28;20043;-76
2023/05/16 13:07:43;;;;;;;12.73;2.80;;;;;;;;;;5086594;28;20048;-76
2023/05/16 13:10:12;;;;;;;8.48;2.53;;;;;;;;;;5062842;28;20040;-76
2023/05/16 13:12:41;;;;;;;9.27;2.78;;;;;;;;;;5083462;28;20123;-75
2023/05/16 13:15:08;;;;;;;10.73;2.90;;;;;;;;;;5057712;28;20071;-75
2023/05/16 13:17:34;;;;;;;7.68;2.92;;;;;;;;;;5064253;28;20530;-75
2023/05/16 13:20:01;;;;;;;9.23;3.55;;;;;;;;;;5079556;28;20046;-76
2023/05/16 13:22:27;;;;;;;10.32;3.92;;;;;;;;;;5083677;28;20442;-76
2023/05/16 13:24:54;;;;;;;8.57;3.30;;;;;;;;;;5097000;27;20043;-75
2023/05/16 13:27:20;;;;;;;9.73;3.50;;;;;;;;;;5062265;28;20123;-76
2023/05/16 13:29:46;;;;;;;6.30;3.20;;;;;;;;;;5084948;28;20131;-78
2023/05/16 13:32:12;;;;;;;7.93;3.20;;;;;;;;;;5095786;28;20158;-76
2023/05/16 13:34:38;;;;;;;10.80;3.30;;;;;;;;;;5090612;28;20136;-76
2023/05/16 13:37:04;;;;;;;9.02;3.30;;;;;;;;;;5073892;28;20495;-76
2023/05/16 13:39:30;;;;;;;10.23;3.60;;;;;;;;;;5086165;28;20047;-76
2023/05/16 13:41:56;;;;;;;10.75;3.22;;;;;;;;;;5070589;28;20048;-76
2023/05/16 13:44:22;;;;;;;11.98;3.10;;;;;;;;;;5088415;28;20531;-75
2023/05/16 13:46:48;;;;;;;9.55;3.70;;;;;;;;;;5080982;28;20055;-75
2023/05/16 13:49:14;;;;;;;8.57;3.75;;;;;;;;;;5106897;27;20074;-76
2023/05/16 13:51:43;;;;;;;8.65;3.55;;;;;;;;;;5082153;28;20462;-75
2023/05/16 13:54:09;;;;;;;7.30;3.05;;;;;;;;;;5078272;28;20495;-76
2023/05/16 13:56:35;;;;;;;10.70;4.03;;;;;;;;;;5076883;28;20044;-75
2023/05/16 13:59:01;;;;;;;8.48;2.90;;;;;;;;;;5099333;27;20151;-76
2023/05/16 14:01:27;;;;;;;9.13;3.15;;;;;;;;;;5081365;27;20451;-76
2023/05/16 14:03:53;;;;;;;14.10;2.90;;;;;;;;;;5073633;28;20035;-77
2023/05/16 14:06:19;;;;;;;5.93;2.65;;;;;;;;;;5076931;28;20039;-76
2023/05/16 14:08:45;;;;;;;7.32;2.72;;;;;;;;;;5078597;28;20071;-76
2023/05/16 14:11:11;;;;;;;6.53;2.53;;;;;;;;;;5070688;28;20072;-76
2023/05/16 14:13:39;;;;;;;8.32;3.10;;;;;;;;;;5084304;28;20044;-77
2023/05/16 14:16:05;;;;;;;9.03;3.20;;;;;;;;;;5071974;28;20040;-76
2023/05/16 14:18:31;;;;;;;8.13;3.10;;;;;;;;;;5093858;27;20125;-76
2023/05/16 14:20:57;;;;;;;7.13;3.75;;;;;;;;;;5100814;27;20075;-75
2023/05/16 14:23:23;;;;;;;8.55;3.78;;;;;;;;;;5069264;28;20051;-76
2023/05/16 14:25:50;;;;;;;12.02;3.97;;;;;;;;;;5077139;28;20044;-76
2023/05/16 14:28:16;;;;;;;8.75;3.05;;;;;;;;;;5097016;27;20399;-75
2023/05/16 14:30:42;;;;;;;6.50;2.85;;;;;;;;;;5093855;28;20051;-76
2023/05/16 14:33:08;;;;;;;4.38;2.55;;;;;;;;;;5090606;28;20075;-76